sensor_id;sensor_type;location;lat;lon;timestamp;P1;durP1;ratioP1;P2;durP2;ratioP2
35298;SDS011;21415;48.054;16.646;2023-02-12T00:02:22;11.40;;;7.15;;
35298;SDS011;21415;48.054;16.646;2023-02-12T00:04:48;13.40;;;7.73;;
35298;SDS011;21415;48.054;16.646;2023-02-12T00:07:14;11.25;;;7.47;;
35298;SDS011;21415;48.054;16.646;2023-02-12T00:09:40;10.90;;;7.87;;
35298;SDS011;21415;48.054;16.646;2023-02-12T00:12:06;14.52;;;8.70;;
35298;SDS011;21415;48.054;16.646;2023-02-12T00:14:32;11.15;;;8.35;;
35298;SDS011;21415;48.054;16.646;2023-02-12T00:16:58;11.25;;;8.40;;
35298;SDS011;21415;48.054;16.646;2023-02-12T00:19:24;11.80;;;8.25;;
35298;SDS011;21415;48.054;16.646;2023-02-12T00:21:50;12.10;;;8.07;;
35298;SDS011;21415;48.054;16.646;2023-02-12T00:24:16;12.00;;;8.53;;
35298;SDS011;21415;48.054;16.646;2023-02-12T00:26:41;11.57;;;8.23;;
35298;SDS011;21415;48.054;16.646;2023-02-12T00:29:08;11.68;;;8.10;;
35298;SDS011;21415;48.054;16.646;2023-02-12T00:31:34;11.52;;;7.13;;
35298;SDS011;21415;48.054;16.646;2023-02-12T00:34:00;12.73;;;7.97;;
35298;SDS011;21415;48.054;16.646;2023-02-12T00:36:27;10.35;;;7.70;;
35298;SDS011;21415;48.054;16.646;2023-02-12T00:38:54;11.15;;;7.57;;
35298;SDS011;21415;48.054;16.646;2023-02-12T00:41:23;11.40;;;7.78;;
35298;SDS011;21415;48.054;16.646;2023-02-12T00:46:15;10.50;;;7.35;;
35298;SDS011;21415;48.054;16.646;2023-02-12T00:48:42;10.18;;;7.10;;
35298;SDS011;21415;48.054;16.646;2023-02-12T00:51:09;11.05;;;7.57;;
35298;SDS011;21415;48.054;16.646;2023-02-12T00:53:35;11.80;;;8.13;;
35298;SDS011;21415;48.054;16.646;2023-02-12T00:56:01;13.05;;;8.30;;
35298;SDS011;21415;48.054;16.646;2023-02-12T00:58:27;11.75;;;7.55;;
35298;SDS011;21415;48.054;16.646;2023-02-12T01:00:53;12.38;;;8.30;;
35298;SDS011;21415;48.054;16.646;2023-02-12T01:03:21;13.18;;;8.93;;
35298;SDS011;21415;48.054;16.646;2023-02-12T01:05:47;12.68;;;8.23;;
35298;SDS011;21415;48.054;16.646;2023-02-12T01:08:14;11.07;;;8.05;;
35298;SDS011;21415;48.054;16.646;2023-02-12T01:10:41;12.63;;;8.95;;
35298;SDS011;21415;48.054;16.646;2023-02-12T01:13:11;11.25;;;8.35;;
35298;SDS011;21415;48.054;16.646;2023-02-12T01:15:38;11.70;;;8.20;;
35298;SDS011;21415;48.054;16.646;2023-02-12T01:18:05;11.40;;;8.10;;
35298;SDS011;21415;48.054;16.646;2023-02-12T01:20:31;12.30;;;8.60;;
35298;SDS011;21415;48.054;16.646;2023-02-12T01:22:57;12.25;;;8.25;;
35298;SDS011;21415;48.054;16.646;2023-02-12T01:25:22;11.57;;;8.63;;
35298;SDS011;21415;48.054;16.646;2023-02-12T01:27:51;13.30;;;7.97;;
35298;SDS011;21415;48.054;16.646;2023-02-12T01:30:18;11.77;;;7.65;;
35298;SDS011;21415;48.054;16.646;2023-02-12T01:32:46;12.32;;;8.38;;
35298;SDS011;21415;48.054;16.646;2023-02-12T01:35:11;14.95;;;9.05;;
35298;SDS011;21415;48.054;16.646;2023-02-12T01:37:39;11.95;;;8.25;;
35298;SDS011;21415;48.054;16.646;2023-02-12T01:40:06;11.32;;;7.57;;
35298;SDS011;21415;48.054;16.646;2023-02-12T01:42:33;11.23;;;8.30;;
35298;SDS011;21415;48.054;16.646;2023-02-12T01:47:41;10.10;;;7.40;;
35298;SDS011;21415;48.054;16.646;2023-02-12T01:50:13;11.40;;;8.27;;
35298;SDS011;21415;48.054;16.646;2023-02-12T01:52:44;12.48;;;8.70;;
35298;SDS011;21415;48.054;16.646;2023-02-12T01:55:13;11.13;;;8.30;;
35298;SDS011;21415;48.054;16.646;2023-02-12T01:57:40;9.73;;;7.80;;
35298;SDS011;21415;48.054;16.646;2023-02-12T02:00:10;10.77;;;7.35;;
35298;SDS011;21415;48.054;16.646;2023-02-12T02:02:42;11.07;;;7.38;;
35298;SDS011;21415;48.054;16.646;2023-02-12T02:05:13;12.05;;;8.07;;
35298;SDS011;21415;48.054;16.646;2023-02-12T02:07:42;11.77;;;7.68;;
35298;SDS011;21415;48.054;16.646;2023-02-12T02:10:09;10.90;;;7.97;;
35298;SDS011;21415;48.054;16.646;2023-02-12T02:12:35;11.10;;;7.30;;
35298;SDS011;21415;48.054;16.646;2023-02-12T02:15:20;12.98;;;7.63;;
35298;SDS011;21415;48.054;16.646;2023-02-12T02:17:58;13.63;;;8.30;;
35298;SDS011;21415;48.054;16.646;2023-02-12T02:29:06;9.85;;;7.28;;
35298;SDS011;21415;48.054;16.646;2023-02-12T02:32:04;10.93;;;7.30;;
35298;SDS011;21415;48.054;16.646;2023-02-12T02:34:45;12.27;;;7.97;;
35298;SDS011;21415;48.054;16.646;2023-02-12T02:37:31;12.32;;;8.13;;
35298;SDS011;21415;48.054;16.646;2023-02-12T02:40:10;12.35;;;7.88;;
35298;SDS011;21415;48.054;16.646;2023-02-12T02:42:57;11.30;;;7.78;;
35298;SDS011;21415;48.054;16.646;2023-02-12T02:45:40;13.68;;;7.95;;
35298;SDS011;21415;48.054;16.646;2023-02-12T02:50:35;10.50;;;7.83;;
35298;SDS011;21415;48.054;16.646;2023-02-12T02:53:06;11.93;;;7.55;;
35298;SDS011;21415;48.054;16.646;2023-02-12T02:55:37;11.65;;;8.07;;
35298;SDS011;21415;48.054;16.646;2023-02-12T02:58:11;10.60;;;7.93;;
35298;SDS011;21415;48.054;16.646;2023-02-12T03:00:48;13.70;;;7.68;;
35298;SDS011;21415;48.054;16.646;2023-02-12T03:03:32;13.60;;;8.40;;
35298;SDS011;21415;48.054;16.646;2023-02-12T03:06:04;12.13;;;8.07;;
35298;SDS011;21415;48.054;16.646;2023-02-12T03:11:09;10.38;;;6.95;;
35298;SDS011;21415;48.054;16.646;2023-02-12T03:13:48;11.07;;;7.75;;
35298;SDS011;21415;48.054;16.646;2023-02-12T03:16:38;11.25;;;8.13;;
35298;SDS011;21415;48.054;16.646;2023-02-12T03:19:16;11.57;;;7.82;;
35298;SDS011;21415;48.054;16.646;2023-02-12T03:21:56;11.27;;;7.93;;
35298;SDS011;21415;48.054;16.646;2023-02-12T03:27:17;11.25;;;7.70;;
35298;SDS011;21415;48.054;16.646;2023-02-12T03:29:45;11.13;;;8.02;;
35298;SDS011;21415;48.054;16.646;2023-02-12T03:32:18;10.52;;;7.30;;
35298;SDS011;21415;48.054;16.646;2023-02-12T03:35:11;11.57;;;7.57;;
35298;SDS011;21415;48.054;16.646;2023-02-12T03:37:40;12.40;;;8.25;;
35298;SDS011;21415;48.054;16.646;2023-02-12T03:40:27;12.65;;;7.93;;
35298;SDS011;21415;48.054;16.646;2023-02-12T03:45:27;10.03;;;7.73;;
35298;SDS011;21415;48.054;16.646;2023-02-12T03:51:04;11.30;;;8.00;;
35298;SDS011;21415;48.054;16.646;2023-02-12T03:53:56;10.60;;;7.45;;
35298;SDS011;21415;48.054;16.646;2023-02-12T03:59:16;12.43;;;8.02;;
35298;SDS011;21415;48.054;16.646;2023-02-12T04:01:43;11.63;;;8.27;;
35298;SDS011;21415;48.054;16.646;2023-02-12T04:04:09;11.20;;;8.10;;
35298;SDS011;21415;48.054;16.646;2023-02-12T04:06:35;11.70;;;8.35;;
35298;SDS011;21415;48.054;16.646;2023-02-12T04:09:02;13.50;;;9.30;;
35298;SDS011;21415;48.054;16.646;2023-02-12T04:17:08;14.02;;;8.43;;
35298;SDS011;21415;48.054;16.646;2023-02-12T04:27:59;13.85;;;9.02;;
35298;SDS011;21415;48.054;16.646;2023-02-12T04:33:02;13.07;;;8.52;;
35298;SDS011;21415;48.054;16.646;2023-02-12T04:35:39;12.23;;;8.90;;
35298;SDS011;21415;48.054;16.646;2023-02-12T04:40:46;13.88;;;9.02;;
35298;SDS011;21415;48.054;16.646;2023-02-12T04:43:13;13.05;;;9.23;;
35298;SDS011;21415;48.054;16.646;2023-02-12T04:45:39;16.40;;;9.60;;
35298;SDS011;21415;48.054;16.646;2023-02-12T04:48:05;14.80;;;9.20;;
35298;SDS011;21415;48.054;16.646;2023-02-12T04:50:39;13.15;;;8.90;;
35298;SDS011;21415;48.054;16.646;2023-02-12T04:53:06;12.02;;;9.13;;
35298;SDS011;21415;48.054;16.646;2023-02-12T04:55:33;13.32;;;9.25;;
35298;SDS011;21415;48.054;16.646;2023-02-12T04:57:58;13.75;;;9.07;;
35298;SDS011;21415;48.054;16.646;2023-02-12T05:00:24;13.40;;;8.43;;
35298;SDS011;21415;48.054;16.646;2023-02-12T05:02:50;14.23;;;10.00;;
35298;SDS011;21415;48.054;16.646;2023-02-12T05:05:16;13.57;;;8.68;;
35298;SDS011;21415;48.054;16.646;2023-02-12T05:07:42;12.43;;;8.27;;
35298;SDS011;21415;48.054;16.646;2023-02-12T05:10:08;15.60;;;10.10;;
35298;SDS011;21415;48.054;16.646;2023-02-12T05:12:34;13.43;;;9.05;;
35298;SDS011;21415;48.054;16.646;2023-02-12T05:14:59;14.82;;;9.30;;
35298;SDS011;21415;48.054;16.646;2023-02-12T05:17:25;13.07;;;9.00;;
35298;SDS011;21415;48.054;16.646;2023-02-12T05:19:51;13.37;;;9.17;;
35298;SDS011;21415;48.054;16.646;2023-02-12T05:22:17;15.93;;;9.93;;
35298;SDS011;21415;48.054;16.646;2023-02-12T05:24:42;14.77;;;9.25;;
35298;SDS011;21415;48.054;16.646;2023-02-12T05:27:08;12.93;;;9.65;;
35298;SDS011;21415;48.054;16.646;2023-02-12T05:29:34;12.17;;;8.57;;
35298;SDS011;21415;48.054;16.646;2023-02-12T05:32:01;12.75;;;8.43;;
35298;SDS011;21415;48.054;16.646;2023-02-12T05:36:53;12.38;;;8.13;;
35298;SDS011;21415;48.054;16.646;2023-02-12T05:39:19;15.13;;;8.93;;
35298;SDS011;21415;48.054;16.646;2023-02-12T05:41:44;12.73;;;8.60;;
35298;SDS011;21415;48.054;16.646;2023-02-12T05:44:10;16.93;;;10.00;;
35298;SDS011;21415;48.054;16.646;2023-02-12T05:46:36;12.85;;;8.88;;
35298;SDS011;21415;48.054;16.646;2023-02-12T05:49:02;12.23;;;8.80;;
35298;SDS011;21415;48.054;16.646;2023-02-12T05:51:29;14.18;;;9.57;;
35298;SDS011;21415;48.054;16.646;2023-02-12T05:54:00;13.88;;;9.15;;
35298;SDS011;21415;48.054;16.646;2023-02-12T05:56:31;12.32;;;8.35;;
35298;SDS011;21415;48.054;16.646;2023-02-12T05:59:00;10.35;;;7.63;;
35298;SDS011;21415;48.054;16.646;2023-02-12T06:01:30;12.00;;;8.40;;
35298;SDS011;21415;48.054;16.646;2023-02-12T06:03:58;11.95;;;8.20;;
35298;SDS011;21415;48.054;16.646;2023-02-12T06:06:25;12.65;;;8.40;;
35298;SDS011;21415;48.054;16.646;2023-02-12T06:08:51;11.70;;;8.38;;
35298;SDS011;21415;48.054;16.646;2023-02-12T06:11:17;11.40;;;8.18;;
35298;SDS011;21415;48.054;16.646;2023-02-12T06:13:45;12.35;;;8.52;;
35298;SDS011;21415;48.054;16.646;2023-02-12T06:18:50;13.80;;;8.75;;
35298;SDS011;21415;48.054;16.646;2023-02-12T06:21:17;11.88;;;8.65;;
35298;SDS011;21415;48.054;16.646;2023-02-12T06:23:44;13.27;;;9.02;;
35298;SDS011;21415;48.054;16.646;2023-02-12T06:26:10;13.15;;;8.32;;
35298;SDS011;21415;48.054;16.646;2023-02-12T06:28:36;14.38;;;9.40;;
35298;SDS011;21415;48.054;16.646;2023-02-12T06:31:02;13.35;;;8.70;;
35298;SDS011;21415;48.054;16.646;2023-02-12T06:33:28;15.95;;;9.40;;
35298;SDS011;21415;48.054;16.646;2023-02-12T06:35:54;13.90;;;9.60;;
35298;SDS011;21415;48.054;16.646;2023-02-12T06:38:20;14.48;;;8.85;;
35298;SDS011;21415;48.054;16.646;2023-02-12T06:40:45;12.02;;;8.65;;
35298;SDS011;21415;48.054;16.646;2023-02-12T06:43:11;12.77;;;9.13;;
35298;SDS011;21415;48.054;16.646;2023-02-12T06:45:37;13.15;;;9.80;;
35298;SDS011;21415;48.054;16.646;2023-02-12T06:48:03;12.85;;;8.98;;
35298;SDS011;21415;48.054;16.646;2023-02-12T06:50:29;12.68;;;9.43;;
35298;SDS011;21415;48.054;16.646;2023-02-12T06:52:54;14.20;;;9.38;;
35298;SDS011;21415;48.054;16.646;2023-02-12T06:55:22;13.05;;;9.23;;
35298;SDS011;21415;48.054;16.646;2023-02-12T06:57:47;12.68;;;8.65;;
35298;SDS011;21415;48.054;16.646;2023-02-12T07:00:13;13.02;;;8.82;;
35298;SDS011;21415;48.054;16.646;2023-02-12T07:02:40;15.52;;;9.63;;
35298;SDS011;21415;48.054;16.646;2023-02-12T07:05:05;12.95;;;9.30;;
35298;SDS011;21415;48.054;16.646;2023-02-12T07:07:32;14.57;;;9.77;;
35298;SDS011;21415;48.054;16.646;2023-02-12T07:12:23;14.48;;;8.88;;
35298;SDS011;21415;48.054;16.646;2023-02-12T07:14:49;13.05;;;8.65;;
35298;SDS011;21415;48.054;16.646;2023-02-12T07:17:15;13.23;;;9.45;;
35298;SDS011;21415;48.054;16.646;2023-02-12T07:19:41;13.23;;;9.57;;
35298;SDS011;21415;48.054;16.646;2023-02-12T07:22:07;13.00;;;9.05;;
35298;SDS011;21415;48.054;16.646;2023-02-12T07:24:32;17.23;;;10.77;;
35298;SDS011;21415;48.054;16.646;2023-02-12T07:26:58;14.30;;;9.70;;
35298;SDS011;21415;48.054;16.646;2023-02-12T07:29:24;15.18;;;10.52;;
35298;SDS011;21415;48.054;16.646;2023-02-12T07:31:49;14.80;;;10.02;;
35298;SDS011;21415;48.054;16.646;2023-02-12T07:34:15;13.80;;;9.20;;
35298;SDS011;21415;48.054;16.646;2023-02-12T07:36:41;14.40;;;8.93;;
35298;SDS011;21415;48.054;16.646;2023-02-12T07:39:07;13.68;;;9.30;;
35298;SDS011;21415;48.054;16.646;2023-02-12T07:41:35;13.27;;;8.93;;
35298;SDS011;21415;48.054;16.646;2023-02-12T07:44:02;13.48;;;9.57;;
35298;SDS011;21415;48.054;16.646;2023-02-12T07:46:32;13.57;;;9.27;;
35298;SDS011;21415;48.054;16.646;2023-02-12T07:49:00;16.90;;;9.63;;
35298;SDS011;21415;48.054;16.646;2023-02-12T07:51:28;14.18;;;9.80;;
35298;SDS011;21415;48.054;16.646;2023-02-12T07:53:54;14.32;;;9.73;;
35298;SDS011;21415;48.054;16.646;2023-02-12T07:56:21;13.95;;;9.50;;
35298;SDS011;21415;48.054;16.646;2023-02-12T07:58:49;12.70;;;8.60;;
35298;SDS011;21415;48.054;16.646;2023-02-12T08:01:17;11.45;;;8.48;;
35298;SDS011;21415;48.054;16.646;2023-02-12T08:03:45;11.68;;;8.00;;
35298;SDS011;21415;48.054;16.646;2023-02-12T08:06:13;11.25;;;7.03;;
35298;SDS011;21415;48.054;16.646;2023-02-12T08:08:41;12.82;;;7.68;;
35298;SDS011;21415;48.054;16.646;2023-02-12T08:11:07;10.20;;;7.35;;
35298;SDS011;21415;48.054;16.646;2023-02-12T08:13:34;11.80;;;8.00;;
35298;SDS011;21415;48.054;16.646;2023-02-12T08:18:28;10.85;;;7.15;;
35298;SDS011;21415;48.054;16.646;2023-02-12T08:20:59;9.90;;;7.25;;
35298;SDS011;21415;48.054;16.646;2023-02-12T08:23:29;10.75;;;7.07;;
35298;SDS011;21415;48.054;16.646;2023-02-12T08:31:18;9.73;;;6.18;;
35298;SDS011;21415;48.054;16.646;2023-02-12T08:33:50;10.38;;;6.57;;
35298;SDS011;21415;48.054;16.646;2023-02-12T08:36:18;9.10;;;6.63;;
35298;SDS011;21415;48.054;16.646;2023-02-12T08:38:48;9.45;;;5.80;;
35298;SDS011;21415;48.054;16.646;2023-02-12T08:41:15;9.77;;;6.90;;
35298;SDS011;21415;48.054;16.646;2023-02-12T08:43:43;10.27;;;5.78;;
35298;SDS011;21415;48.054;16.646;2023-02-12T08:46:10;8.55;;;5.78;;
35298;SDS011;21415;48.054;16.646;2023-02-12T08:48:36;8.35;;;6.10;;
35298;SDS011;21415;48.054;16.646;2023-02-12T08:53:35;9.48;;;5.97;;
35298;SDS011;21415;48.054;16.646;2023-02-12T08:56:01;7.30;;;5.72;;
35298;SDS011;21415;48.054;16.646;2023-02-12T08:58:27;8.32;;;6.00;;
35298;SDS011;21415;48.054;16.646;2023-02-12T09:00:53;7.80;;;5.57;;
35298;SDS011;21415;48.054;16.646;2023-02-12T09:03:19;10.02;;;5.55;;
35298;SDS011;21415;48.054;16.646;2023-02-12T09:05:45;8.00;;;5.78;;
35298;SDS011;21415;48.054;16.646;2023-02-12T09:08:10;9.30;;;5.88;;
35298;SDS011;21415;48.054;16.646;2023-02-12T09:10:40;7.55;;;5.20;;
35298;SDS011;21415;48.054;16.646;2023-02-12T09:13:07;10.43;;;5.80;;
35298;SDS011;21415;48.054;16.646;2023-02-12T09:15:37;8.38;;;5.60;;
35298;SDS011;21415;48.054;16.646;2023-02-12T09:18:04;7.75;;;5.22;;
35298;SDS011;21415;48.054;16.646;2023-02-12T09:20:31;6.75;;;5.15;;
35298;SDS011;21415;48.054;16.646;2023-02-12T09:23:00;6.38;;;4.88;;
35298;SDS011;21415;48.054;16.646;2023-02-12T09:25:26;8.52;;;5.78;;
35298;SDS011;21415;48.054;16.646;2023-02-12T09:27:51;8.13;;;5.47;;
35298;SDS011;21415;48.054;16.646;2023-02-12T09:30:18;7.78;;;5.72;;
35298;SDS011;21415;48.054;16.646;2023-02-12T09:32:44;7.57;;;4.72;;
35298;SDS011;21415;48.054;16.646;2023-02-12T09:35:10;7.60;;;5.07;;
35298;SDS011;21415;48.054;16.646;2023-02-12T09:40:04;7.35;;;5.18;;
35298;SDS011;21415;48.054;16.646;2023-02-12T09:42:48;8.00;;;5.10;;
35298;SDS011;21415;48.054;16.646;2023-02-12T09:45:24;7.72;;;5.30;;
35298;SDS011;21415;48.054;16.646;2023-02-12T09:47:55;6.65;;;4.90;;
35298;SDS011;21415;48.054;16.646;2023-02-12T09:53:22;7.50;;;5.20;;
35298;SDS011;21415;48.054;16.646;2023-02-12T09:55:52;8.65;;;5.30;;
35298;SDS011;21415;48.054;16.646;2023-02-12T09:58:21;6.47;;;5.05;;
35298;SDS011;21415;48.054;16.646;2023-02-12T10:00:49;9.25;;;5.70;;
35298;SDS011;21415;48.054;16.646;2023-02-12T10:03:15;7.13;;;4.68;;
35298;SDS011;21415;48.054;16.646;2023-02-12T10:05:42;7.65;;;5.07;;
35298;SDS011;21415;48.054;16.646;2023-02-12T10:11:18;7.25;;;4.60;;
35298;SDS011;21415;48.054;16.646;2023-02-12T10:19:55;8.38;;;5.15;;
35298;SDS011;21415;48.054;16.646;2023-02-12T10:22:45;9.05;;;5.88;;
35298;SDS011;21415;48.054;16.646;2023-02-12T10:28:07;7.68;;;5.63;;
35298;SDS011;21415;48.054;16.646;2023-02-12T10:33:18;7.45;;;4.65;;
35298;SDS011;21415;48.054;16.646;2023-02-12T10:36:02;7.30;;;4.63;;
35298;SDS011;21415;48.054;16.646;2023-02-12T10:38:30;6.72;;;4.68;;
35298;SDS011;21415;48.054;16.646;2023-02-12T10:41:00;7.10;;;4.93;;
35298;SDS011;21415;48.054;16.646;2023-02-12T10:43:27;7.75;;;4.78;;
35298;SDS011;21415;48.054;16.646;2023-02-12T10:45:53;6.95;;;4.93;;
35298;SDS011;21415;48.054;16.646;2023-02-12T10:48:20;7.10;;;4.57;;
35298;SDS011;21415;48.054;16.646;2023-02-12T10:53:32;7.88;;;4.72;;
35298;SDS011;21415;48.054;16.646;2023-02-12T10:56:09;8.82;;;5.10;;
35298;SDS011;21415;48.054;16.646;2023-02-12T10:58:55;7.20;;;4.53;;
35298;SDS011;21415;48.054;16.646;2023-02-12T11:03:52;7.50;;;4.55;;
35298;SDS011;21415;48.054;16.646;2023-02-12T11:06:22;5.82;;;4.18;;
35298;SDS011;21415;48.054;16.646;2023-02-12T11:08:50;6.70;;;4.63;;
35298;SDS011;21415;48.054;16.646;2023-02-12T11:13:52;7.00;;;3.78;;
35298;SDS011;21415;48.054;16.646;2023-02-12T11:16:31;6.78;;;4.05;;
35298;SDS011;21415;48.054;16.646;2023-02-12T11:19:19;8.27;;;4.57;;
35298;SDS011;21415;48.054;16.646;2023-02-12T11:21:49;8.23;;;5.15;;
35298;SDS011;21415;48.054;16.646;2023-02-12T11:26:50;6.93;;;4.90;;
35298;SDS011;21415;48.054;16.646;2023-02-12T11:29:19;6.80;;;5.13;;
35298;SDS011;21415;48.054;16.646;2023-02-12T11:32:08;7.45;;;5.32;;
35298;SDS011;21415;48.054;16.646;2023-02-12T11:34:43;8.65;;;6.07;;
35298;SDS011;21415;48.054;16.646;2023-02-12T11:37:27;7.57;;;5.70;;
35298;SDS011;21415;48.054;16.646;2023-02-12T11:39:56;9.90;;;6.07;;
35298;SDS011;21415;48.054;16.646;2023-02-12T11:42:23;7.25;;;4.85;;
35298;SDS011;21415;48.054;16.646;2023-02-12T11:44:54;7.50;;;5.47;;
35298;SDS011;21415;48.054;16.646;2023-02-12T11:47:23;8.13;;;5.18;;
35298;SDS011;21415;48.054;16.646;2023-02-12T11:49:53;6.65;;;5.28;;
35298;SDS011;21415;48.054;16.646;2023-02-12T11:52:26;7.00;;;5.13;;
35298;SDS011;21415;48.054;16.646;2023-02-12T11:54:56;8.68;;;5.30;;
35298;SDS011;21415;48.054;16.646;2023-02-12T11:57:34;7.90;;;5.13;;
35298;SDS011;21415;48.054;16.646;2023-02-12T12:00:14;6.88;;;4.70;;
35298;SDS011;21415;48.054;16.646;2023-02-12T12:02:51;6.20;;;4.60;;
35298;SDS011;21415;48.054;16.646;2023-02-12T12:05:26;7.05;;;4.75;;
35298;SDS011;21415;48.054;16.646;2023-02-12T12:07:58;6.95;;;4.20;;
35298;SDS011;21415;48.054;16.646;2023-02-12T12:10:32;5.63;;;4.43;;
35298;SDS011;21415;48.054;16.646;2023-02-12T12:13:20;7.57;;;4.55;;
35298;SDS011;21415;48.054;16.646;2023-02-12T12:15:51;5.97;;;3.75;;
35298;SDS011;21415;48.054;16.646;2023-02-12T12:18:44;5.65;;;3.58;;
35298;SDS011;21415;48.054;16.646;2023-02-12T12:24:34;6.05;;;4.05;;
35298;SDS011;21415;48.054;16.646;2023-02-12T12:27:22;5.65;;;3.33;;
35298;SDS011;21415;48.054;16.646;2023-02-12T12:30:59;4.45;;;3.13;;
35298;SDS011;21415;48.054;16.646;2023-02-12T12:33:36;4.35;;;2.75;;
35298;SDS011;21415;48.054;16.646;2023-02-12T12:48:10;4.63;;;2.50;;
35298;SDS011;21415;48.054;16.646;2023-02-12T12:53:15;3.05;;;1.95;;
35298;SDS011;21415;48.054;16.646;2023-02-12T12:56:09;4.68;;;2.67;;
35298;SDS011;21415;48.054;16.646;2023-02-12T13:04:50;3.83;;;2.88;;
35298;SDS011;21415;48.054;16.646;2023-02-12T13:12:29;6.13;;;3.70;;
35298;SDS011;21415;48.054;16.646;2023-02-12T13:15:16;6.38;;;3.88;;
35298;SDS011;21415;48.054;16.646;2023-02-12T13:18:08;6.65;;;3.92;;
35298;SDS011;21415;48.054;16.646;2023-02-12T13:26:09;6.00;;;4.18;;
35298;SDS011;21415;48.054;16.646;2023-02-12T13:28:53;7.28;;;4.38;;
35298;SDS011;21415;48.054;16.646;2023-02-12T13:31:26;7.22;;;4.40;;
35298;SDS011;21415;48.054;16.646;2023-02-12T13:33:55;6.07;;;4.18;;
35298;SDS011;21415;48.054;16.646;2023-02-12T13:36:25;6.90;;;4.80;;
35298;SDS011;21415;48.054;16.646;2023-02-12T13:38:54;7.35;;;4.82;;
35298;SDS011;21415;48.054;16.646;2023-02-12T13:41:28;6.18;;;4.40;;
35298;SDS011;21415;48.054;16.646;2023-02-12T13:44:00;8.90;;;5.45;;
35298;SDS011;21415;48.054;16.646;2023-02-12T13:47:05;7.18;;;4.35;;
35298;SDS011;21415;48.054;16.646;2023-02-12T13:49:38;8.95;;;5.60;;
35298;SDS011;21415;48.054;16.646;2023-02-12T13:57:20;7.65;;;4.68;;
35298;SDS011;21415;48.054;16.646;2023-02-12T13:59:49;6.95;;;4.53;;
35298;SDS011;21415;48.054;16.646;2023-02-12T14:02:27;8.07;;;5.07;;
35298;SDS011;21415;48.054;16.646;2023-02-12T14:04:57;6.63;;;4.78;;
35298;SDS011;21415;48.054;16.646;2023-02-12T14:07:44;6.15;;;4.28;;
35298;SDS011;21415;48.054;16.646;2023-02-12T14:10:25;6.90;;;5.00;;
35298;SDS011;21415;48.054;16.646;2023-02-12T14:12:56;7.93;;;4.38;;
35298;SDS011;21415;48.054;16.646;2023-02-12T14:15:44;6.72;;;3.88;;
35298;SDS011;21415;48.054;16.646;2023-02-12T14:23:43;6.65;;;4.72;;
35298;SDS011;21415;48.054;16.646;2023-02-12T14:36:40;9.82;;;7.35;;
35298;SDS011;21415;48.054;16.646;2023-02-12T14:41:45;6.85;;;4.70;;
35298;SDS011;21415;48.054;16.646;2023-02-12T14:46:45;6.75;;;4.78;;
35298;SDS011;21415;48.054;16.646;2023-02-12T14:49:32;6.75;;;4.88;;
35298;SDS011;21415;48.054;16.646;2023-02-12T14:57:26;16.25;;;9.15;;
35298;SDS011;21415;48.054;16.646;2023-02-12T15:02:41;13.05;;;8.05;;
35298;SDS011;21415;48.054;16.646;2023-02-12T15:05:18;11.48;;;8.15;;
35298;SDS011;21415;48.054;16.646;2023-02-12T15:07:46;13.70;;;7.85;;
35298;SDS011;21415;48.054;16.646;2023-02-12T15:10:23;12.50;;;8.38;;
35298;SDS011;21415;48.054;16.646;2023-02-12T15:12:56;11.93;;;8.13;;
35298;SDS011;21415;48.054;16.646;2023-02-12T15:15:33;13.80;;;7.88;;
35298;SDS011;21415;48.054;16.646;2023-02-12T15:24:02;12.75;;;7.85;;
35298;SDS011;21415;48.054;16.646;2023-02-12T15:26:32;11.68;;;7.72;;
35298;SDS011;21415;48.054;16.646;2023-02-12T15:29:06;12.88;;;7.72;;
35298;SDS011;21415;48.054;16.646;2023-02-12T15:31:40;12.50;;;7.38;;
35298;SDS011;21415;48.054;16.646;2023-02-12T15:34:06;10.35;;;7.28;;
35298;SDS011;21415;48.054;16.646;2023-02-12T15:36:38;10.00;;;7.00;;
35298;SDS011;21415;48.054;16.646;2023-02-12T15:39:13;14.15;;;7.88;;
35298;SDS011;21415;48.054;16.646;2023-02-12T15:41:43;10.32;;;7.22;;
35298;SDS011;21415;48.054;16.646;2023-02-12T15:44:28;10.65;;;6.95;;
35298;SDS011;21415;48.054;16.646;2023-02-12T15:46:59;11.15;;;6.93;;
35298;SDS011;21415;48.054;16.646;2023-02-12T15:49:39;9.32;;;6.50;;
35298;SDS011;21415;48.054;16.646;2023-02-12T15:52:19;11.40;;;7.28;;
35298;SDS011;21415;48.054;16.646;2023-02-12T15:54:49;10.07;;;6.78;;
35298;SDS011;21415;48.054;16.646;2023-02-12T15:57:19;11.95;;;7.47;;
35298;SDS011;21415;48.054;16.646;2023-02-12T15:59:54;10.27;;;7.35;;
35298;SDS011;21415;48.054;16.646;2023-02-12T16:02:25;11.07;;;6.93;;
35298;SDS011;21415;48.054;16.646;2023-02-12T16:04:53;11.07;;;6.72;;
35298;SDS011;21415;48.054;16.646;2023-02-12T16:07:20;10.52;;;6.80;;
35298;SDS011;21415;48.054;16.646;2023-02-12T16:09:49;9.48;;;6.60;;
35298;SDS011;21415;48.054;16.646;2023-02-12T16:12:18;12.95;;;7.43;;
35298;SDS011;21415;48.054;16.646;2023-02-12T16:14:53;11.15;;;7.78;;
35298;SDS011;21415;48.054;16.646;2023-02-12T16:17:22;9.40;;;6.97;;
35298;SDS011;21415;48.054;16.646;2023-02-12T16:19:59;9.63;;;6.73;;
35298;SDS011;21415;48.054;16.646;2023-02-12T16:22:32;10.65;;;7.05;;
35298;SDS011;21415;48.054;16.646;2023-02-12T16:25:03;10.98;;;7.18;;
35298;SDS011;21415;48.054;16.646;2023-02-12T16:27:39;11.35;;;6.97;;
35298;SDS011;21415;48.054;16.646;2023-02-12T16:30:06;11.68;;;7.53;;
35298;SDS011;21415;48.054;16.646;2023-02-12T16:32:48;12.07;;;7.53;;
35298;SDS011;21415;48.054;16.646;2023-02-12T16:37:41;9.47;;;6.50;;
35298;SDS011;21415;48.054;16.646;2023-02-12T16:48:01;9.98;;;6.97;;
35298;SDS011;21415;48.054;16.646;2023-02-12T16:51:18;9.48;;;6.72;;
35298;SDS011;21415;48.054;16.646;2023-02-12T16:53:24;9.45;;;7.00;;
35298;SDS011;21415;48.054;16.646;2023-02-12T16:55:55;10.57;;;6.95;;
35298;SDS011;21415;48.054;16.646;2023-02-12T16:58:22;10.48;;;7.30;;
35298;SDS011;21415;48.054;16.646;2023-02-12T17:00:50;9.93;;;7.55;;
35298;SDS011;21415;48.054;16.646;2023-02-12T17:03:17;9.57;;;7.10;;
35298;SDS011;21415;48.054;16.646;2023-02-12T17:05:43;11.20;;;7.60;;
35298;SDS011;21415;48.054;16.646;2023-02-12T17:08:14;11.38;;;7.68;;
35298;SDS011;21415;48.054;16.646;2023-02-12T17:10:42;10.90;;;7.68;;
35298;SDS011;21415;48.054;16.646;2023-02-12T17:13:12;10.75;;;7.03;;
35298;SDS011;21415;48.054;16.646;2023-02-12T17:18:07;12.80;;;7.55;;
35298;SDS011;21415;48.054;16.646;2023-02-12T17:20:35;18.48;;;10.48;;
35298;SDS011;21415;48.054;16.646;2023-02-12T17:23:02;17.42;;;10.23;;
35298;SDS011;21415;48.054;16.646;2023-02-12T17:25:28;20.38;;;10.57;;
35298;SDS011;21415;48.054;16.646;2023-02-12T17:27:55;16.75;;;9.60;;
35298;SDS011;21415;48.054;16.646;2023-02-12T17:30:21;16.80;;;9.73;;
35298;SDS011;21415;48.054;16.646;2023-02-12T17:32:48;16.40;;;9.35;;
35298;SDS011;21415;48.054;16.646;2023-02-12T17:35:14;14.20;;;8.88;;
35298;SDS011;21415;48.054;16.646;2023-02-12T17:37:40;15.02;;;8.68;;
35298;SDS011;21415;48.054;16.646;2023-02-12T17:40:06;11.02;;;7.93;;
35298;SDS011;21415;48.054;16.646;2023-02-12T17:42:35;12.00;;;7.85;;
35298;SDS011;21415;48.054;16.646;2023-02-12T17:45:01;13.63;;;8.52;;
35298;SDS011;21415;48.054;16.646;2023-02-12T17:47:27;12.93;;;8.63;;
35298;SDS011;21415;48.054;16.646;2023-02-12T17:57:11;11.70;;;7.78;;
35298;SDS011;21415;48.054;16.646;2023-02-12T17:59:39;14.23;;;8.68;;